Time;durP1;ratioP1;P1;durP2;ratioP2;P2;SDS_P1;SDS_P2;PMS_P1;PMS_P2;Temp;Humidity;BMP_temperature;BMP_pressure;BME280_temperature;BME280_humidity;BME280_pressure;Samples;Min_cycle;Max_cycle;Signal;HPM_P1;HPM_P2
2023/05/02 00:00:30;;;;;;;35.70;29.38;;;;;;;12.60;79.69;101853.03;5094071;28;20016;-64
2023/05/02 00:02:56;;;;;;;36.75;29.48;;;;;;;12.85;79.01;101854.31;5092702;28;20031;-63
2023/05/02 00:05:24;;;;;;;33.42;29.05;;;;;;;12.86;79.06;101861.41;5096484;28;20612;-63
2023/05/02 00:07:52;;;;;;;35.45;28.67;;;;;;;12.88;79.35;101865.72;5094156;28;20032;-64
2023/05/02 00:10:18;;;;;;;34.10;28.55;;;;;;;12.92;79.16;101871.75;5092934;28;20043;-63
2023/05/02 00:12:43;;;;;;;30.73;27.40;;;;;;;12.91;79.20;101872.66;5094015;28;20063;-63
2023/05/02 00:15:09;;;;;;;31.30;27.83;;;;;;;12.85;79.24;101870.34;5094016;28;20031;-63
2023/05/02 00:17:35;;;;;;;33.28;29.67;;;;;;;12.70;79.49;101872.91;5092682;28;20016;-63
2023/05/02 00:20:03;;;;;;;33.85;28.88;;;;;;;12.69;79.96;101876.53;5093861;28;20432;-63
2023/05/02 00:22:31;;;;;;;31.35;27.55;;;;;;;12.60;80.56;101882.41;5092369;28;20016;-64
2023/05/02 00:24:57;;;;;;;36.25;29.98;;;;;;;12.71;79.78;101887.16;5092241;28;20482;-63
2023/05/02 00:27:26;;;;;;;34.83;28.75;;;;;;;12.65;80.76;101882.16;5093751;28;20051;-63
2023/05/02 00:29:55;;;;;;;34.58;29.60;;;;;;;12.49;80.99;101882.97;5091851;28;20039;-63
2023/05/02 00:32:21;;;;;;;31.73;28.02;;;;;;;12.52;81.37;101887.28;5093814;28;20049;-63
2023/05/02 00:34:46;;;;;;;33.15;28.70;;;;;;;12.32;81.80;101882.16;5092491;28;20058;-63
2023/05/02 00:37:12;;;;;;;32.63;28.13;;;;;;;12.37;81.97;101891.66;5093225;28;20454;-63
2023/05/02 00:39:38;;;;;;;32.22;28.73;;;;;;;12.50;81.59;101890.06;5093786;28;20048;-63
2023/05/02 00:42:03;;;;;;;32.60;28.42;;;;;;;12.38;81.90;101890.72;5093356;28;20028;-63
2023/05/02 00:44:29;;;;;;;35.13;27.67;;;;;;;12.34;82.26;101891.81;5091846;28;20035;-63
2023/05/02 00:46:55;;;;;;;31.88;27.52;;;;;;;12.25;81.97;101897.66;5091937;28;20024;-63
2023/05/02 00:49:21;;;;;;;30.63;26.75;;;;;;;12.27;82.42;101899.28;5096107;28;20023;-63
2023/05/02 00:51:46;;;;;;;31.17;25.33;;;;;;;12.24;82.36;101904.78;5110547;28;20032;-63
2023/05/02 00:54:12;;;;;;;28.67;25.58;;;;;;;12.38;82.21;101905.84;5107684;28;20028;-64
2023/05/02 00:56:38;;;;;;;31.20;24.63;;;;;;;12.33;81.57;101899.91;5093356;28;20050;-63
2023/05/02 00:59:04;;;;;;;27.52;24.52;;;;;;;12.34;81.16;101893.63;5103058;28;20110;-63
2023/05/02 01:01:39;;;;;;;26.50;22.88;;;;;;;12.26;81.34;101902.91;5105162;28;20075;-64
2023/05/02 01:04:23;;;;;;;26.35;22.83;;;;;;;12.32;81.32;101900.84;5092681;28;20500;-63
2023/05/02 01:07:18;;;;;;;26.27;22.23;;;;;;;12.26;81.69;101904.69;5091122;28;20028;-63
2023/05/02 01:09:58;;;;;;;24.90;22.27;;;;;;;12.07;82.05;101902.16;5069616;28;20043;-63
2023/05/02 01:12:36;;;;;;;25.48;22.75;;;;;;;12.19;82.14;101906.81;5092586;28;20036;-63
2023/05/02 01:15:06;;;;;;;23.13;20.55;;;;;;;11.99;82.27;101905.19;5091599;28;20517;-64
2023/05/02 01:17:32;;;;;;;;;;;;;;;12.37;80.24;101913.00;5093209;28;20038;-63
2023/05/02 01:20:20;;;;;;;24.92;21.70;;;;;;;12.19;81.37;101904.16;5092743;28;19911;-63
2023/05/02 01:22:50;;;;;;;21.90;19.60;;;;;;;12.00;81.10;101906.94;5092375;28;20360;-63
2023/05/02 01:25:15;;;;;;;20.35;17.30;;;;;;;12.00;80.38;101903.38;5092695;28;20024;-63
2023/05/02 01:27:56;;;;;;;20.73;17.60;;;;;;;11.86;80.73;101909.47;5091178;28;20050;-63
2023/05/02 01:30:25;;;;;;;17.98;16.08;;;;;;;11.86;80.76;101912.13;5092469;28;20056;-63
2023/05/02 01:32:58;;;;;;;19.45;17.10;;;;;;;11.56;82.23;101906.53;5092455;28;20031;-63
2023/05/02 01:35:25;;;;;;;20.83;17.80;;;;;;;11.66;81.96;101906.91;5092766;28;20024;-63
2023/05/02 01:37:52;;;;;;;19.27;17.27;;;;;;;11.79;81.52;101902.66;5092060;28;20027;-63
2023/05/02 01:40:22;;;;;;;19.50;17.33;;;;;;;11.69;81.97;101907.63;5074407;28;20062;-63
2023/05/02 01:42:49;;;;;;;18.13;16.23;;;;;;;11.68;81.83;101911.22;5092031;28;20436;-63
2023/05/02 01:45:16;;;;;;;18.40;16.20;;;;;;;11.77;81.81;101913.44;5091006;28;20019;-63
2023/05/02 01:47:43;;;;;;;18.40;16.45;;;;;;;11.75;81.32;101907.31;5092494;28;20023;-63
2023/05/02 01:50:15;;;;;;;18.02;16.23;;;;;;;11.75;81.50;101912.63;5092308;28;20070;-63
2023/05/02 01:52:43;;;;;;;19.23;16.00;;;;;;;11.78;80.99;101923.13;5092146;28;20020;-63
2023/05/02 01:55:11;;;;;;;19.13;16.65;;;;;;;11.77;81.20;101918.75;5074016;28;20513;-63
2023/05/02 01:57:40;;;;;;;17.15;15.23;;;;;;;11.76;81.88;101913.50;5090599;28;20035;-63
2023/05/02 02:00:09;;;;;;;17.67;15.87;;;;;;;11.79;82.18;101930.22;5092058;28;20031;-63
2023/05/02 02:02:36;;;;;;;;;;;;;;;12.00;80.43;101924.72;5092223;28;20027;-63
2023/05/02 02:05:05;;;;;;;19.33;16.52;;;;;;;11.82;81.66;101930.06;5093261;28;20006;-63
2023/05/02 02:07:31;;;;;;;19.25;17.20;;;;;;;11.85;81.95;101929.03;5092353;28;20395;-63
2023/05/02 02:09:58;;;;;;;18.25;16.35;;;;;;;11.90;81.61;101940.34;5103578;28;20372;-63
2023/05/02 02:12:37;;;;;;;20.60;17.30;;;;;;;11.92;82.45;101948.28;5110806;28;20019;-63
2023/05/02 02:15:08;;;;;;;20.02;17.52;;;;;;;11.88;82.89;101949.34;5108789;28;20027;-63
2023/05/02 02:17:56;;;;;;;20.75;18.55;;;;;;;11.91;82.62;101934.09;5109821;28;20027;-63
2023/05/02 02:20:21;;;;;;;20.48;17.63;;;;;;;11.79;82.51;101947.97;5112126;28;20030;-63
2023/05/02 02:22:47;;;;;;;20.95;18.88;;;;;;;11.72;83.00;101955.44;5111803;28;20020;-63
2023/05/02 02:25:16;;;;;;;22.02;19.00;;;;;;;11.75;83.73;101952.59;5112326;28;20022;-63
2023/05/02 02:27:42;;;;;;;21.02;18.83;;;;;;;11.59;83.85;101947.19;5112123;28;20394;-63
2023/05/02 02:30:11;;;;;;;21.42;18.58;;;;;;;11.60;84.44;101950.72;5109395;28;20425;-63
2023/05/02 02:32:37;;;;;;;21.42;18.98;;;;;;;11.62;84.47;101955.94;5112038;28;20027;-63
2023/05/02 02:35:03;;;;;;;21.83;19.27;;;;;;;11.61;84.71;101944.44;5108349;28;20039;-63
2023/05/02 02:37:38;;;;;;;21.00;18.80;;;;;;;11.50;85.48;101950.31;5109539;28;20428;-63
2023/05/02 02:40:27;;;;;;;22.35;19.90;;;;;;;11.67;84.53;101957.44;5110712;28;20038;-63
2023/05/02 02:43:13;;;;;;;22.52;19.70;;;;;;;11.70;84.40;101962.63;5112004;28;20048;-63
2023/05/02 02:46:15;;;;;;;22.48;19.90;;;;;;;11.63;85.32;101961.22;5107446;28;20496;-63
2023/05/02 02:48:55;;;;;;;23.55;19.85;;;;;;;11.42;86.03;101967.63;5112361;28;20238;-63
2023/05/02 02:51:31;;;;;;;26.25;19.85;;;;;;;11.30;86.69;101972.59;5109015;28;20046;-63
2023/05/02 02:54:08;;;;;;;22.38;19.52;;;;;;;11.55;85.80;101966.06;5109487;28;20393;-63
2023/05/02 02:56:40;;;;;;;23.73;21.10;;;;;;;11.53;86.09;101974.16;5110633;28;20458;-63
2023/05/02 02:59:12;;;;;;;22.10;19.77;;;;;;;11.43;86.51;101975.50;5110631;28;20144;-63
2023/05/02 03:01:40;;;;;;;22.25;20.05;;;;;;;11.35;86.73;101981.22;5106873;28;20032;-63
2023/05/02 03:04:08;;;;;;;22.45;20.13;;;;;;;11.28;87.57;101973.59;5111606;28;20065;-63
2023/05/02 03:06:33;;;;;;;22.88;20.38;;;;;;;11.31;87.63;101976.97;5111319;28;20485;-63
2023/05/02 03:08:59;;;;;;;24.42;20.38;;;;;;;11.37;87.24;101983.81;5110320;28;20076;-63
2023/05/02 03:11:24;;;;;;;20.52;18.42;;;;;;;11.34;87.33;101986.63;5110229;28;20039;-64
2023/05/02 03:13:51;;;;;;;22.13;18.65;;;;;;;11.19;87.63;101972.22;5101641;28;20110;-63
2023/05/02 03:16:38;;;;;;;19.15;17.15;;;;;;;11.43;87.30;101996.81;5094008;28;20035;-63
2023/05/02 03:19:05;;;;;;;18.85;16.92;;;;;;;11.45;87.14;102002.09;5104451;28;20110;-64
2023/05/02 03:21:33;;;;;;;18.90;16.77;;;;;;;11.49;87.55;101998.34;5094293;28;20286;-64
2023/05/02 03:24:02;;;;;;;17.88;16.05;;;;;;;11.54;87.13;101999.84;5093585;28;20028;-63
2023/05/02 03:26:28;;;;;;;22.40;17.08;;;;;;;11.48;87.40;102004.59;5093804;28;20019;-63
2023/05/02 03:28:55;;;;;;;20.98;16.73;;;;;;;11.42;87.79;102011.09;5094190;28;20406;-63
2023/05/02 03:31:21;;;;;;;18.55;15.75;;;;;;;11.47;87.51;102003.75;5100184;28;20031;-64
2023/05/02 03:33:47;;;;;;;18.55;16.50;;;;;;;11.29;88.93;101996.63;5094869;28;20020;-63
2023/05/02 03:36:13;;;;;;;17.55;15.73;;;;;;;11.31;89.34;102000.09;5094319;28;20474;-63
2023/05/02 03:38:41;;;;;;;18.73;16.38;;;;;;;11.35;90.05;102009.63;5095604;28;20028;-63
2023/05/02 03:41:07;;;;;;;20.27;17.65;;;;;;;11.29;90.09;102002.81;5096057;28;20013;-63
2023/05/02 03:43:32;;;;;;;19.77;16.92;;;;;;;11.27;90.20;101998.50;5091940;28;20379;-63
2023/05/02 03:46:05;;;;;;;21.27;17.85;;;;;;;11.31;90.61;102000.09;5099093;28;20080;-63
2023/05/02 03:48:30;;;;;;;22.05;17.00;;;;;;;11.09;90.75;101992.25;5083598;28;20020;-63
2023/05/02 03:50:56;;;;;;;19.20;16.95;;;;;;;11.14;90.83;102004.38;5094571;28;20111;-63
2023/05/02 03:53:21;;;;;;;24.55;17.42;;;;;;;11.36;90.15;102022.91;5093797;28;20039;-64
2023/05/02 03:55:47;;;;;;;18.30;16.00;;;;;;;11.30;90.24;102023.19;5094499;28;20507;-64
2023/05/02 03:58:12;;;;;;;24.35;16.95;;;;;;;11.33;89.62;102019.53;5096729;28;20043;-63
2023/05/02 04:00:38;;;;;;;19.05;16.20;;;;;;;11.25;90.21;102019.88;5098376;28;20012;-63
2023/05/02 04:03:03;;;;;;;20.10;15.65;;;;;;;11.18;90.33;102036.19;5092822;28;20023;-63
2023/05/02 04:05:29;;;;;;;19.95;15.75;;;;;;;11.20;89.71;102029.88;5095557;28;20399;-63
2023/05/02 04:07:58;;;;;;;18.50;14.32;;;;;;;11.08;88.89;102039.28;5094812;28;20049;-63
2023/05/02 04:10:23;;;;;;;20.58;12.75;;;;;;;11.03;88.79;102044.00;5092864;28;20107;-63
2023/05/02 04:12:49;;;;;;;18.40;12.80;;;;;;;11.17;88.32;102042.47;5093605;28;20154;-63
2023/05/02 04:15:14;;;;;;;18.17;11.15;;;;;;;11.10;87.80;102045.41;5094170;28;20035;-63
2023/05/02 04:17:40;;;;;;;18.77;11.38;;;;;;;11.06;87.49;102048.28;5092694;28;20019;-63
2023/05/02 04:20:08;;;;;;;15.68;10.85;;;;;;;10.95;87.11;102058.56;5092486;28;20035;-63
2023/05/02 04:22:38;;;;;;;14.75;9.77;;;;;;;10.98;86.34;102056.63;5091932;28;20131;-63
2023/05/02 04:25:05;;;;;;;12.00;9.68;;;;;;;11.01;86.33;102067.16;5093836;28;20108;-63
2023/05/02 04:27:30;;;;;;;14.07;9.18;;;;;;;10.90;85.61;102061.44;5093802;28;20020;-63
2023/05/02 04:29:56;;;;;;;13.68;9.75;;;;;;;10.99;85.91;102070.81;5092659;28;20434;-63
2023/05/02 04:32:21;;;;;;;13.68;9.98;;;;;;;10.93;85.67;102077.25;5093695;28;20023;-63
2023/05/02 04:34:47;;;;;;;16.40;10.77;;;;;;;10.92;85.71;102083.53;5093687;28;20020;-63
2023/05/02 04:37:12;;;;;;;14.38;9.93;;;;;;;10.85;85.45;102076.72;5091694;28;20016;-63
2023/05/02 04:39:38;;;;;;;18.42;10.60;;;;;;;10.87;85.56;102083.72;5093910;28;20024;-63
2023/05/02 04:42:03;;;;;;;15.57;10.07;;;;;;;11.07;85.28;102087.31;5093413;28;20031;-63
2023/05/02 04:44:28;;;;;;;12.80;7.55;;;;;;;11.00;82.43;102093.81;5093603;28;20027;-63
2023/05/02 04:46:54;;;;;;;15.55;7.18;;;;;;;10.69;80.05;102112.00;5091857;28;20539;-63
2023/05/02 04:49:19;;;;;;;10.13;6.13;;;;;;;10.50;78.84;102113.75;5093506;28;20030;-63
2023/05/02 04:51:47;;;;;;;7.03;6.32;;;;;;;10.44;77.92;102119.28;5090772;28;20120;-63
2023/05/02 04:54:13;;;;;;;12.88;6.35;;;;;;;10.44;78.44;102121.97;5093215;28;20489;-63
2023/05/02 04:56:39;;;;;;;10.30;5.75;;;;;;;10.45;77.41;102124.56;5093222;28;20028;-63
2023/05/02 04:59:04;;;;;;;11.60;6.80;;;;;;;10.38;76.61;102133.75;5093159;28;20020;-63
2023/05/02 05:01:30;;;;;;;11.43;6.57;;;;;;;10.41;77.09;102130.06;5093938;28;20016;-63
2023/05/02 05:03:55;;;;;;;9.30;6.43;;;;;;;10.42;76.57;102129.16;5092876;28;20028;-63
2023/05/02 05:06:21;;;;;;;10.80;6.13;;;;;;;10.46;76.55;102136.94;5097854;28;20138;-63
2023/05/02 05:08:47;;;;;;;8.90;6.78;;;;;;;10.52;75.80;102145.59;5112112;28;20041;-63
2023/05/02 05:11:15;;;;;;;8.65;6.10;;;;;;;10.52;75.79;102154.44;5099973;28;20471;-63
2023/05/02 05:13:41;;;;;;;13.05;5.93;;;;;;;10.45;76.03;102153.81;5092816;28;20463;-63
2023/05/02 05:16:07;;;;;;;11.50;6.95;;;;;;;10.65;75.42;102152.13;5091608;28;20024;-63
2023/05/02 05:18:39;;;;;;;11.00;6.93;;;;;;;10.62;75.42;102163.78;5093004;28;20118;-63
2023/05/02 05:21:10;;;;;;;12.57;7.18;;;;;;;10.47;75.50;102159.09;5092093;28;20028;-63
2023/05/02 05:23:37;;;;;;;6.88;5.85;;;;;;;10.45;75.24;102163.59;5092637;28;20471;-63
2023/05/02 05:26:12;;;;;;;11.23;6.82;;;;;;;10.43;75.41;102170.78;5091128;28;20024;-63
2023/05/02 05:28:38;;;;;;;9.00;5.70;;;;;;;10.54;75.12;102178.31;5091360;28;20036;-63
2023/05/02 05:31:10;;;;;;;9.52;6.40;;;;;;;10.63;74.48;102176.13;5092383;28;20073;-63
2023/05/02 05:33:37;;;;;;;8.50;6.75;;;;;;;10.57;73.73;102176.38;5092686;28;20023;-63
2023/05/02 05:36:09;;;;;;;9.38;6.75;;;;;;;10.60;74.43;102184.25;5091635;28;20024;-63
2023/05/02 05:38:35;;;;;;;8.25;6.43;;;;;;;10.66;75.21;102176.00;5094235;28;20051;-63
2023/05/02 05:41:00;;;;;;;10.65;6.50;;;;;;;10.72;73.83;102177.53;5095047;28;20059;-63
2023/05/02 05:43:27;;;;;;;8.38;6.53;;;;;;;10.74;73.95;102183.66;5090965;28;20475;-63
2023/05/02 05:45:53;;;;;;;7.80;6.43;;;;;;;10.69;74.35;102188.31;5092270;28;20016;-63
2023/05/02 05:48:19;;;;;;;11.85;6.00;;;;;;;10.62;74.06;102179.72;5094054;28;20016;-63
2023/05/02 05:50:47;;;;;;;12.70;6.30;;;;;;;10.69;74.78;102188.31;5090332;28;20027;-63
2023/05/02 05:53:13;;;;;;;13.63;7.45;;;;;;;10.89;74.34;102193.66;5091544;28;20024;-63
2023/05/02 05:55:39;;;;;;;8.20;6.70;;;;;;;11.00;71.67;102192.31;5092410;28;20487;-63
2023/05/02 05:58:05;;;;;;;9.27;7.13;;;;;;;11.12;71.31;102194.47;5092123;28;20044;-63
2023/05/02 06:00:34;;;;;;;10.40;6.25;;;;;;;11.14;71.20;102198.78;5090841;28;20569;-63
2023/05/02 06:02:59;;;;;;;7.70;5.25;;;;;;;11.25;70.04;102202.78;5091635;28;20016;-63
2023/05/02 06:05:25;;;;;;;10.25;6.05;;;;;;;11.32;69.94;102202.44;5092033;28;20437;-63
2023/05/02 06:07:50;;;;;;;8.70;5.97;;;;;;;11.48;69.32;102207.94;5091424;28;20408;-63
2023/05/02 06:10:16;;;;;;;10.48;6.60;;;;;;;11.45;68.99;102210.75;5091930;28;20042;-63
2023/05/02 06:12:41;;;;;;;8.43;6.15;;;;;;;11.37;68.44;102219.06;5092013;28;20051;-63
2023/05/02 06:15:07;;;;;;;9.48;6.53;;;;;;;11.40;69.08;102222.53;5090999;28;20077;-63
2023/05/02 06:17:32;;;;;;;8.68;6.13;;;;;;;11.58;68.70;102227.91;5103139;28;20023;-63
2023/05/02 06:19:57;;;;;;;8.15;5.57;;;;;;;11.74;67.88;102232.56;5108876;28;20066;-63
2023/05/02 06:22:23;;;;;;;8.43;5.47;;;;;;;11.93;66.78;102228.13;5108595;28;20043;-63
2023/05/02 06:24:48;;;;;;;8.32;5.70;;;;;;;11.98;66.53;102236.78;5112226;28;20026;-63
2023/05/02 06:27:14;;;;;;;9.48;5.72;;;;;;;12.04;65.48;102236.50;5109580;28;20023;-63
2023/05/02 06:29:39;;;;;;;7.45;5.18;;;;;;;11.99;65.27;102241.16;5110819;28;20039;-63
2023/05/02 06:32:05;;;;;;;8.88;5.38;;;;;;;11.98;65.38;102252.78;5110365;28;20028;-63
2023/05/02 06:34:32;;;;;;;9.15;5.63;;;;;;;11.81;65.16;102256.19;5112104;28;20034;-63
2023/05/02 06:36:59;;;;;;;8.68;5.65;;;;;;;11.69;64.90;102251.41;5108463;28;20030;-63
2023/05/02 06:39:25;;;;;;;10.73;6.07;;;;;;;11.44;66.25;102258.75;5112185;28;20016;-63
2023/05/02 06:41:50;;;;;;;10.00;6.20;;;;;;;11.52;67.03;102269.94;5110007;28;20049;-63
2023/05/02 06:44:16;;;;;;;10.88;6.22;;;;;;;11.57;66.32;102279.47;5110863;28;20492;-63
2023/05/02 06:46:42;;;;;;;9.15;5.97;;;;;;;11.86;66.28;102268.47;5099832;28;20028;-63
2023/05/02 06:49:07;;;;;;;7.15;5.97;;;;;;;11.87;66.35;102279.06;5090297;28;20024;-63
2023/05/02 06:51:32;;;;;;;11.05;5.95;;;;;;;12.03;65.39;102288.09;5106981;28;20026;-64
2023/05/02 06:53:58;;;;;;;14.35;6.60;;;;;;;11.90;65.78;102286.91;5112730;28;20035;-63
2023/05/02 06:56:26;;;;;;;14.82;6.70;;;;;;;11.81;66.28;102292.63;5113005;28;20416;-63
2023/05/02 06:58:52;;;;;;;16.02;7.13;;;;;;;11.67;66.74;102285.25;5114793;28;20031;-63
2023/05/02 07:01:17;;;;;;;13.20;6.55;;;;;;;11.78;65.39;102298.09;5091789;28;20437;-64
2023/05/02 07:03:43;;;;;;;12.40;6.78;;;;;;;11.88;65.67;102293.25;5094619;28;20047;-63
2023/05/02 07:06:08;;;;;;;16.30;7.47;;;;;;;11.96;66.16;102304.44;5094259;28;20028;-63
2023/05/02 07:08:34;;;;;;;11.68;6.90;;;;;;;11.97;65.95;102306.16;5102157;28;20023;-63
2023/05/02 07:11:01;;;;;;;14.57;6.72;;;;;;;12.15;65.48;102307.16;5097790;28;20431;-63
2023/05/02 07:13:28;;;;;;;13.35;6.60;;;;;;;12.15;65.30;102307.16;5098787;28;20031;-64
2023/05/02 07:15:54;;;;;;;10.80;7.15;;;;;;;12.08;65.34;102309.22;5093734;28;20478;-64
2023/05/02 07:18:20;;;;;;;12.65;6.95;;;;;;;12.28;65.66;102314.50;5098005;28;20106;-64
2023/05/02 07:20:45;;;;;;;11.82;7.30;;;;;;;12.57;64.03;102316.72;5097605;28;20024;-64
2023/05/02 07:23:11;;;;;;;10.52;6.40;;;;;;;12.64;64.02;102320.81;5094144;28;20363;-64
2023/05/02 07:25:36;;;;;;;15.60;6.53;;;;;;;12.61;63.41;102331.66;5102329;28;20127;-64
2023/05/02 07:28:02;;;;;;;11.25;6.65;;;;;;;12.23;63.35;102334.31;5094153;28;20024;-64
2023/05/02 07:30:27;;;;;;;12.82;6.35;;;;;;;11.95;64.45;102338.25;5094491;28;20036;-64
2023/05/02 07:32:53;;;;;;;13.48;6.82;;;;;;;11.85;63.95;102336.00;5091256;28;20024;-64
2023/05/02 07:35:18;;;;;;;11.77;6.75;;;;;;;11.77;64.84;102334.56;5095379;28;20050;-64
2023/05/02 07:37:44;;;;;;;10.30;6.93;;;;;;;11.82;64.81;102345.00;5110939;28;20031;-64
2023/05/02 07:40:12;;;;;;;13.98;7.70;;;;;;;11.70;65.08;102345.56;5113917;28;20095;-64
2023/05/02 07:42:39;;;;;;;15.57;7.55;;;;;;;11.75;64.49;102351.56;5109570;28;20017;-64
2023/05/02 07:45:05;;;;;;;16.05;7.43;;;;;;;11.99;64.50;102344.28;5114778;28;20024;-63
2023/05/02 07:47:31;;;;;;;16.30;7.43;;;;;;;12.16;64.04;102351.53;5095808;28;20170;-64
2023/05/02 07:49:56;;;;;;;14.55;6.72;;;;;;;12.25;63.24;102338.63;5076401;28;20114;-63
2023/05/02 07:52:22;;;;;;;17.80;8.32;;;;;;;12.05;62.97;102349.34;5092851;28;20028;-64
2023/05/02 07:54:48;;;;;;;10.23;6.90;;;;;;;12.13;63.11;102355.22;5094508;28;20031;-64
2023/05/02 07:57:13;;;;;;;12.75;7.03;;;;;;;12.09;62.81;102360.75;5092905;28;20027;-63
2023/05/02 07:59:39;;;;;;;14.13;6.78;;;;;;;11.96;63.79;102358.63;5094493;28;20028;-63
2023/05/02 08:02:04;;;;;;;11.05;7.45;;;;;;;12.08;63.33;102359.88;5092799;28;20383;-64
2023/05/02 08:04:30;;;;;;;17.33;7.15;;;;;;;11.98;63.77;102366.56;5093141;28;20024;-63
2023/05/02 08:06:55;;;;;;;11.48;6.93;;;;;;;11.77;64.71;102365.69;5093816;28;20055;-64
2023/05/02 08:09:20;;;;;;;16.33;8.40;;;;;;;11.63;64.95;102360.94;5094151;28;20024;-63
2023/05/02 08:11:46;;;;;;;21.38;7.97;;;;;;;11.63;64.24;102374.28;5092800;28;20082;-63
2023/05/02 08:14:12;;;;;;;16.67;7.85;;;;;;;11.52;63.58;102376.53;5093985;28;20028;-64
2023/05/02 08:16:37;;;;;;;15.38;7.30;;;;;;;11.34;64.87;102383.50;5092557;28;20038;-64
2023/05/02 08:19:03;;;;;;;17.73;7.50;;;;;;;11.22;63.25;102387.53;5094018;28;20032;-64
2023/05/02 08:21:30;;;;;;;15.43;6.85;;;;;;;11.12;63.46;102388.84;5092401;28;20027;-64
2023/05/02 08:23:58;;;;;;;14.18;7.07;;;;;;;11.19;61.89;102402.78;5092541;28;20398;-63
2023/05/02 08:26:24;;;;;;;12.88;6.38;;;;;;;11.30;61.83;102392.56;5093648;28;20032;-63
2023/05/02 08:28:53;;;;;;;14.95;7.85;;;;;;;11.43;61.65;102398.22;5092012;28;20058;-63
2023/05/02 08:31:19;;;;;;;12.32;6.55;;;;;;;11.32;62.95;102401.34;5093375;28;20032;-64
2023/05/02 08:33:47;;;;;;;12.88;7.35;;;;;;;10.97;63.01;102411.63;5093722;28;20035;-63
2023/05/02 08:36:14;;;;;;;15.13;7.60;;;;;;;11.04;62.96;102409.59;5093084;28;20024;-63
2023/05/02 08:38:40;;;;;;;12.40;6.93;;;;;;;11.07;62.74;102413.00;5093839;28;20024;-64
2023/05/02 08:41:27;;;;;;;11.65;7.35;;;;;;;11.18;62.90;102419.66;5093318;28;20020;-63
2023/05/02 08:43:53;;;;;;;9.05;6.80;;;;;;;11.33;61.45;102421.72;5093599;28;20027;-63
2023/05/02 08:46:22;;;;;;;15.15;7.25;;;;;;;11.44;61.57;102426.59;5091989;28;20016;-63
2023/05/02 08:48:49;;;;;;;12.43;7.68;;;;;;;11.66;61.26;102426.59;5093643;28;20024;-64
2023/05/02 08:51:16;;;;;;;11.30;6.75;;;;;;;11.74;59.30;102420.00;5091625;28;20024;-63
2023/05/02 08:53:42;;;;;;;11.07;6.70;;;;;;;11.96;59.19;102427.09;5093653;28;20509;-64
2023/05/02 08:56:08;;;;;;;11.60;6.90;;;;;;;12.06;58.08;102425.78;5091818;28;20020;-64
2023/05/02 08:58:37;;;;;;;11.25;6.65;;;;;;;11.87;58.62;102433.69;5091907;28;20475;-63
2023/05/02 09:01:11;;;;;;;12.75;6.63;;;;;;;12.15;57.28;102441.38;5093136;28;20054;-64
2023/05/02 09:03:37;;;;;;;11.68;6.22;;;;;;;12.16;57.49;102436.91;5092038;28;20031;-63
2023/05/02 09:06:06;;;;;;;16.05;6.38;;;;;;;12.35;55.86;102435.13;5091107;28;20393;-64
2023/05/02 09:08:34;;;;;;;13.38;7.25;;;;;;;12.35;56.04;102435.13;5093226;28;20038;-64
2023/05/02 09:11:03;;;;;;;12.07;6.65;;;;;;;12.31;57.47;102432.69;5092020;28;20035;-64
2023/05/02 09:13:36;;;;;;;10.02;6.13;;;;;;;12.59;55.29;102445.63;5092899;28;20059;-64
2023/05/02 09:16:16;;;;;;;11.25;6.18;;;;;;;12.89;55.54;102440.69;5092476;28;20099;-64
2023/05/02 09:18:46;;;;;;;10.07;6.57;;;;;;;13.22;55.85;102450.69;5091876;28;20482;-64
2023/05/02 09:21:19;;;;;;;9.63;6.30;;;;;;;13.69;53.30;102448.38;5091240;28;20410;-63
2023/05/02 09:23:46;;;;;;;10.82;6.47;;;;;;;13.89;52.48;102447.34;5092956;28;20102;-64
2023/05/02 09:26:14;;;;;;;12.38;5.90;;;;;;;13.86;51.20;102448.38;5091263;28;20085;-64
2023/05/02 09:28:44;;;;;;;8.25;5.60;;;;;;;13.95;50.94;102451.53;5092731;28;20051;-64
2023/05/02 09:31:11;;;;;;;12.63;6.13;;;;;;;14.00;50.64;102450.34;5092003;28;20047;-64
2023/05/02 09:33:38;;;;;;;9.25;5.55;;;;;;;13.76;49.06;102452.44;5092462;28;20363;-64
2023/05/02 09:36:06;;;;;;;10.95;5.68;;;;;;;13.87;50.14;102449.22;5091972;28;20105;-64
2023/05/02 09:38:32;;;;;;;11.00;5.45;;;;;;;13.67;50.46;102460.94;5092763;28;20475;-64
2023/05/02 09:40:58;;;;;;;13.10;6.10;;;;;;;13.45;51.24;102462.97;5091041;28;20027;-64
2023/05/02 09:43:25;;;;;;;10.00;5.85;;;;;;;13.44;52.36;102461.22;5092471;28;20020;-64
2023/05/02 09:46:16;;;;;;;9.05;5.78;;;;;;;13.37;52.01;102472.22;5092259;28;20020;-63
2023/05/02 09:48:58;;;;;;;7.25;6.38;;;;;;;13.11;51.94;102477.91;5089654;28;20044;-63
2023/05/02 09:51:24;;;;;;;10.13;6.20;;;;;;;13.33;51.77;102475.13;5092079;28;20024;-64
2023/05/02 09:53:50;;;;;;;10.38;6.03;;;;;;;13.98;50.06;102465.59;5092439;28;20081;-64
2023/05/02 09:56:16;;;;;;;8.88;5.65;;;;;;;14.44;48.86;102481.06;5091803;28;20531;-64
2023/05/02 09:58:42;;;;;;;10.20;5.70;;;;;;;14.44;48.63;102476.59;5092433;28;20042;-64
2023/05/02 10:01:17;;;;;;;13.07;5.43;;;;;;;14.53;47.18;102477.94;5092193;28;20091;-64
2023/05/02 10:03:46;;;;;;;7.35;5.28;;;;;;;14.32;47.38;102477.22;5091041;28;20027;-64
2023/05/02 10:06:12;;;;;;;9.00;5.85;;;;;;;14.06;47.78;102468.75;5091643;28;20073;-64
2023/05/02 10:08:38;;;;;;;12.02;5.75;;;;;;;13.98;49.34;102480.78;5092463;28;20094;-64
2023/05/02 10:11:07;;;;;;;8.18;5.55;;;;;;;13.77;48.99;102475.59;5091506;28;20097;-64
2023/05/02 10:13:33;;;;;;;16.35;6.47;;;;;;;14.15;49.01;102477.22;5092232;28;20043;-64
2023/05/02 10:16:03;;;;;;;11.98;6.93;;;;;;;14.59;48.99;102480.28;5090549;28;20051;-64
2023/05/02 10:18:47;;;;;;;11.98;6.47;;;;;;;14.90;48.69;102481.28;5090831;28;20027;-64
2023/05/02 10:21:16;;;;;;;7.57;5.65;;;;;;;15.28;46.23;102495.22;5091178;28;20503;-64
2023/05/02 10:23:45;;;;;;;8.77;6.15;;;;;;;15.41;44.35;102488.22;5091932;28;20028;-64
2023/05/02 10:26:15;;;;;;;11.23;5.57;;;;;;;15.54;43.85;102487.50;5090430;28;20035;-64
2023/05/02 10:28:41;;;;;;;11.63;5.32;;;;;;;15.21;45.07;102480.44;5091315;28;20482;-64
2023/05/02 10:31:11;;;;;;;11.85;5.72;;;;;;;14.88;45.93;102493.88;5091259;28;20040;-64
2023/05/02 10:33:38;;;;;;;15.57;6.22;;;;;;;14.99;45.95;102496.84;5091780;28;20047;-64
2023/05/02 10:36:07;;;;;;;10.02;5.93;;;;;;;14.79;46.60;102497.94;5091005;28;20027;-64
2023/05/02 10:38:37;;;;;;;10.45;6.13;;;;;;;14.27;47.83;102496.22;5091513;28;20028;-64
2023/05/02 10:41:14;;;;;;;11.10;5.70;;;;;;;14.17;48.66;102492.25;5091785;28;20016;-64
2023/05/02 10:43:44;;;;;;;13.13;6.38;;;;;;;14.18;48.16;102498.50;5092418;28;20098;-64
2023/05/02 10:46:35;;;;;;;9.95;6.00;;;;;;;14.20;49.20;102494.78;5091595;28;20020;-64
2023/05/02 10:49:07;;;;;;;12.57;6.00;;;;;;;14.15;49.47;102496.84;5091731;28;20027;-64
2023/05/02 10:51:35;;;;;;;12.60;6.20;;;;;;;13.98;49.86;102496.84;5091104;28;20039;-64
2023/05/02 10:54:15;;;;;;;12.05;6.63;;;;;;;14.03;49.23;102506.38;5091580;28;20032;-64
2023/05/02 10:57:03;;;;;;;11.07;6.22;;;;;;;14.15;49.58;102498.63;5091761;28;20039;-64
2023/05/02 10:59:32;;;;;;;12.85;6.05;;;;;;;14.40;47.30;102504.44;5091890;28;20028;-64
2023/05/02 11:01:58;;;;;;;11.57;6.32;;;;;;;14.68;47.76;102506.56;5091613;28;20055;-64
2023/05/02 11:04:23;;;;;;;11.48;5.38;;;;;;;15.21;47.19;102502.75;5107178;28;20043;-64
2023/05/02 11:06:55;;;;;;;13.52;5.57;;;;;;;15.54;44.98;102514.34;5089735;28;20030;-64
2023/05/02 11:09:20;;;;;;;8.68;4.85;;;;;;;15.92;43.82;102513.97;5091204;28;20024;-64
2023/05/02 11:11:51;;;;;;;7.10;4.60;;;;;;;15.91;44.45;102507.72;5090085;28;20043;-64
2023/05/02 11:14:26;;;;;;;7.97;5.13;;;;;;;16.00;44.12;102514.34;5091763;28;20107;-64
2023/05/02 11:17:00;;;;;;;7.45;4.80;;;;;;;15.61;42.22;102511.19;5091213;28;20071;-64
2023/05/02 11:19:30;;;;;;;9.85;5.22;;;;;;;15.93;42.25;102513.00;5091425;28;20019;-64
2023/05/02 11:22:22;;;;;;;9.07;4.97;;;;;;;16.08;41.77;102504.03;5090577;28;20027;-64